Aviation Digital Data Service (ADDS)

Output produced by TAFs form (0335 UTC 27 March 2015)
found at http://aviationweather.gov/adds/tafs/
 
KTCC 262321Z 2700/2724 25010G18KT P6SM SKC 
     FM270100 22008KT P6SM FEW250 
     FM270900 32006KT P6SM SKC 
     FM271800 22007KT P6SM SKC